Date,TemperatureHighF,TemperatureAvgF,TemperatureLowF,DewpointHighF,DewpointAvgF,DewpointLowF,HumidityHigh,HumidityAvg,HumidityLow,PressureMaxIn,PressureMinIn,WindSpeedMaxMPH,WindSpeedAvgMPH,GustSpeedMaxMPH,PrecipitationSumIn
2013-12-1,42,33,29,29,25,21,79,73,57,29.39,29.26,2,0,8,0.00
2013-12-2,42,36,30,31,26,24,84,69,50,29.25,29.04,3,0,9,0.12
2013-12-3,48,42,36,45,39,31,89,87,85,29.03,28.95,5,1,9,0.05
2013-12-4,54,49,38,51,45,32,90,87,78,29.02,28.80,5,1,12,0.02
2013-12-5,38,26,19,32,16,6,80,64,55,29.53,28.95,2,0,9,0.00
2013-12-6,19,16,11,6,4,-2,63,58,52,29.80,29.50,2,0,10,0.00
2013-12-7,18,12,6,1,-2,-4,64,55,45,29.94,29.80,5,0,9,0.00
2013-12-8,24,20,12,20,11,-2,82,69,51,29.85,29.20,3,1,13,0.00
2013-12-9,24,14,-2,18,5,-12,80,67,57,29.49,29.19,2,0,9,0.00
2013-12-10,20,10,-3,8,-1,-13,67,60,56,29.55,29.26,3,1,9,0.00
2013-12-11,19,11,-2,9,0,-14,75,61,46,29.81,29.52,5,0,9,0.00
2013-12-12,17,8,-4,6,-3,-15,66,59,52,29.80,29.47,2,1,7,0.00
2013-12-13,30,23,14,21,14,5,73,66,56,29.46,29.37,3,1,8,0.01
2013-12-14,29,27,21,24,22,14,84,79,74,29.38,29.19,5,1,13,0.00
2013-12-15,20,14,8,14,4,-3,76,64,54,29.38,29.19,1,0,6,0.00
2013-12-16,21,14,5,12,2,-9,74,60,49,29.41,29.28,3,0,8,0.00
2013-12-17,31,23,15,21,15,8,79,70,59,29.35,29.21,1,0,6,0.00
2013-12-18,34,24,13,23,12,5,71,61,41,29.41,29.10,6,1,13,0.00
2013-12-19,37,33,28,31,26,22,86,77,67,29.20,29.07,3,1,9,0.21
2013-12-20,34,32,31,31,29,28,87,86,85,29.09,29.01,6,2,12,0.31
2013-12-21,34,31,28,30,27,24,87,86,85,29.13,28.88,7,2,17,0.02
2013-12-22,32,29,23,28,24,17,86,82,77,29.38,28.87,6,1,12,0.00
2013-12-23,24,11,-3,19,3,-12,79,70,62,29.69,29.38,1,0,5,0.00
2013-12-24,16,6,-3,8,-4,-13,70,63,58,29.80,29.59,2,0,9,0.00
2013-12-25,25,22,16,19,15,7,80,74,64,29.59,29.35,3,0,8,0.00
2013-12-26,32,24,13,25,16,5,78,71,66,29.54,29.35,2,0,6,0.00
2013-12-27,38,33,22,28,24,16,83,72,62,29.54,29.33,2,0,8,0.02
2013-12-28,45,38,31,32,29,25,80,68,56,29.35,29.09,3,0,7,0.23
2013-12-29,36,26,9,28,17,-3,82,70,55,29.45,29.03,6,1,16,0.08
2013-12-30,11,5,-2,-2,-7,-13,65,57,49,29.58,29.44,2,0,10,0.00
2013-12-31,12,7,0,3,-2,-9,70,65,57,29.60,29.43,1,0,6,0.00